• Join FlightAware (Why Join?)
  • Login
  • US Flag 
01:10AM EDT


 

Airport Tracker/Info


-or-


 

Live Flight TrackerFlight Track Log ✈ VH-HAZ ✈ 14-Jun-2013 ✈ YRRB - YPDN / DRW

Flight Track Log - Related Links

Times and Time Zones

All times are in EDT time to prevent confusion due to time zone crossing. See the VH-HAZ flight status page for this flight to view local times or setup timezone preferences in your user account.

Time Position Orientation Groundspeed Altitude Reporting Facility
EDT Latitude Longitude Course Direction KTS MPH feet Rate Location/Type
02:41AM -14.5300 134.1358 299° West 145 167 9,500  Level Aus ATC (RADAR)
02:41AM -14.5252 134.1269 299° West 144 166 9,700 600 Climbing Aus ATC (RADAR)
02:42AM -14.5130 134.1051 300° West 148 170 10,000 540 Climbing Aus ATC (RADAR)
02:43AM -14.4938 134.0759 304° West 145 167 10,500 60 Climbing Aus ATC (RADAR)
02:43AM -14.4794 134.0518 302° West 166 191 10,100 -480 Descending Aus ATC (RADAR)
02:44AM -14.4548 134.0040 298° West 200 230 9,800 -300 Descending Aus ATC (RADAR)
02:45AM -14.4517 133.9904 283° West 200 230 9,800 120 Level Aus ATC (RADAR)
02:45AM -14.4454 133.9646 284° West 190 219 9,900  Climbing Aus ATC (RADAR)
02:47AM -14.4237 133.8856 286° West 173 199 9,900  Level Aus ATC (RADAR)
02:47AM -14.4166 133.8746 304° West 171 197 9,900  Level Aus ATC (RADAR)
02:47AM -14.3989 133.8500 307° West 173 199 9,900  Level Aus ATC (RADAR)
02:48AM -14.3847 133.8152 293° West 178 205 9,900  Level Aus ATC (RADAR)
02:49AM -14.3748 133.7891 291° West 168 193 9,900  Level Aus ATC (RADAR)
02:50AM -14.3555 133.7484 296° West 170 196 9,900  Level Aus ATC (RADAR)
02:50AM -14.3499 133.7376 299° West 168 193 9,900  Level Aus ATC (RADAR)
02:51AM -14.3299 133.6997 298° West 162 186 9,900  Level Aus ATC (RADAR)
02:52AM -14.3132 133.6682 299° West 165 190 9,900  Level Aus ATC (RADAR)
02:52AM -14.2985 133.6432 301° West 169 194 9,900  Level Aus ATC (RADAR)
02:53AM -14.2799 133.6078 298° West 168 193 9,900  Level Aus ATC (RADAR)
02:54AM -14.2684 133.5828 295° West 164 189 9,900  Level Aus ATC (RADAR)
02:54AM -14.2510 133.5474 297° West 164 189 9,900  Level Aus ATC (RADAR)
02:55AM -14.2437 133.5332 298° West 164 189 9,900  Level Aus ATC (RADAR)
02:56AM -14.2227 133.4938 299° West 168 193 9,900  Level Aus ATC (RADAR)
02:56AM -14.2117 133.4729 299° West 165 190 9,900  Level Aus ATC (RADAR)
02:57AM -14.1921 133.4343 298° West 164 189 9,900  Level Aus ATC (RADAR)
02:58AM -14.1740 133.3986 298° West 166 191 9,900  Level Aus ATC (RADAR)
02:58AM -14.1632 133.3773 298° West 167 192 9,900  Level Aus ATC (RADAR)
02:59AM -14.1430 133.3382 298° West 166 191 9,900  Level Aus ATC (RADAR)
03:00AM -14.1360 133.3241 297° West 166 191 9,900  Level Aus ATC (RADAR)
03:00AM -14.1234 133.2988 297° West 167 192 9,900  Level Aus ATC (RADAR)
03:01AM -14.0980 133.2493 298° West 165 190 9,900  Level Aus ATC (RADAR)
03:02AM -14.0926 133.2385 297° West 166 191 9,900  Level Aus ATC (RADAR)
03:02AM -14.0797 133.2139 298° West 165 190 9,900  Level Aus ATC (RADAR)
03:03AM -14.0600 133.1748 297° West 165 190 9,900  Level Aus ATC (RADAR)
03:04AM -14.0473 133.1499 298° West 166 191 9,900  Level Aus ATC (RADAR)
03:05AM -14.0294 133.1146 298° West 165 190 9,900  Level Aus ATC (RADAR)
03:05AM -14.0241 133.1039 297° West 165 190 9,900  Level Aus ATC (RADAR)
03:05AM -14.0116 133.0789 297° West 166 191 9,900  Level Aus ATC (RADAR)
03:06AM -13.9899 133.0366 298° West 164 189 9,900  Level Aus ATC (RADAR)
03:07AM -13.9846 133.0258 297° West 165 190 9,900  Level Aus ATC (RADAR)
03:07AM -13.9716 133.0009 298° West 166 191 9,900  Level Aus ATC (RADAR)
03:08AM -13.9536 132.9653 298° West 166 191 9,900  Level Aus ATC (RADAR)
03:09AM -13.9406 132.9404 298° West 166 191 9,900  Level Aus ATC (RADAR)
03:10AM -13.9222 132.9047 298° West 167 192 9,900  Level Aus ATC (RADAR)
03:10AM -13.9041 132.8694 298° West 165 190 9,900  Level Aus ATC (RADAR)
03:11AM -13.8789 132.8195 297° West 165 190 9,900  Level Aus ATC (RADAR)
03:12AM -13.8715 132.8053 298° West 166 191 9,900  Level Aus ATC (RADAR)
03:12AM -13.8609 132.7839 297° West 165 190 9,900  Level Aus ATC (RADAR)
03:13AM -13.8554 132.7734 310° West 165 190 9,900  Level Aus ATC (RADAR)
03:13AM -13.8554 132.7734 298° West 165 190 9,900  Level Aus ATC (RADAR)
03:15AM -13.8020 132.6996 307° West  Level FlightAware Approximate
03:22AM -13.6085 132.4329 307° West  Level FlightAware Approximate
03:23AM -13.5809 132.3948 307° West  Level FlightAware Approximate
03:24AM -13.5532 132.3568 307° West  Level FlightAware Approximate
03:25AM -13.5255 132.3187 307° West  Level FlightAware Approximate
03:26AM -13.4978 132.2807 307° West  Level FlightAware Approximate
03:27AM -13.4701 132.2427 307° West  Level FlightAware Approximate
03:28AM -13.4424 132.2046 307° West  Level FlightAware Approximate
03:29AM -13.4147 132.1666 307° West  Level FlightAware Approximate
03:30AM -13.3870 132.1286 307° West  Level FlightAware Approximate
03:31AM -13.3593 132.0906 307° West  Level FlightAware Approximate
03:32AM -13.3316 132.0526 307° West  Level FlightAware Approximate
03:33AM -13.3039 132.0146 307° West  Level FlightAware Approximate
03:34AM -13.2761 131.9767 307° West  Level FlightAware Approximate
03:35AM -13.2434 131.9359 310° West  Level FlightAware Approximate
03:36AM -13.2135 131.8997 310° West  Level FlightAware Approximate
03:37AM -13.1835 131.8636 310° West  Level FlightAware Approximate
03:38AM -13.1536 131.8275 310° West  Level FlightAware Approximate
03:39AM -13.1236 131.7914 310° West  Level FlightAware Approximate
03:40AM -13.0936 131.7553 310° West  Level FlightAware Approximate
03:41AM -13.0637 131.7192 310° West  Level FlightAware Approximate
03:41AM -13.0634 131.7257 308° West  Level Estimated
03:42AM -13.0337 131.6831 310° West  Level FlightAware Approximate
03:43AM -13.0037 131.6470 310° West  Level FlightAware Approximate
03:44AM -12.9737 131.6109 310° West  Level FlightAware Approximate
03:45AM -12.9437 131.5749 310° West  Level FlightAware Approximate
03:46AM -12.9137 131.5388 310° West  Level FlightAware Approximate
03:48AM -12.8642 131.4642 308° West  Level Estimated
03:49AM -12.8358 131.4268 308° West  Level Estimated
03:50AM -12.8073 131.3895 308° West  Level Estimated
03:51AM -12.7788 131.3522 308° West  Level Estimated
03:52AM -12.7503 131.3149 308° West  Level Estimated
03:53AM -12.7218 131.2776 308° West  Level Estimated
03:54AM -12.6933 131.2404 308° West  Level Estimated
03:55AM -12.6648 131.2031 308° West  Level Estimated
03:56AM -12.6363 131.1658 308° West  Level Estimated
03:57AM -12.6078 131.1286 308° West  Level Estimated
03:58AM -12.5793 131.0913 308° West  Level Estimated
03:59AM -12.5508 131.0541 308° West  Level Estimated
04:00AM -12.5222 131.0168 308° West  Level Estimated
04:01AM -12.4937 130.9796 308° West  Level Estimated
04:02AM -12.4652 130.9424 308° West  Level Estimated
04:03AM -12.4366 130.9052 308° West  Level Estimated
04:04AM -12.4147 130.8767 308° West  Level Estimated
04:05AM -12.4147 130.8767 236° Southwest  Level Estimated
04:06AM -12.4147 130.8767 236° Southwest  Level Estimated
04:07AM -12.4147 130.8767 236° Southwest  Level Estimated
04:08AM -12.4147 130.8767 236° Southwest  Level Estimated
04:09AM -12.4147 130.8767 236° Southwest  Level Estimated
04:10AM -12.4147 130.8767 236° Southwest  Level Estimated
04:11AM -12.4147 130.8767 236° Southwest  Level Estimated
04:12AM -12.4147 130.8767 236° Southwest  Level Estimated
04:13AM -12.4147 130.8767 236° Southwest  Level Estimated
04:14AM -12.4147 130.8767 236° Southwest  Level Estimated
04:15AM -12.4147 130.8767 236° Southwest  Level Estimated
04:16AM -12.4147 130.8767 236° Southwest  Level Estimated
04:17AM -12.4147 130.8767 236° Southwest  Level Estimated
04:18AM -12.4147 130.8767 236° Southwest  Level Estimated